Omaha, Nebraska
Current Conditions -  °F | °C
As of 12:52 PM on Tuesday 21 Oct 2014 (Local Time) from KOMA Reporting Station
Clear Clear  
Wind Chill: 20°   Ceiling: Unl
Heat Index: 20°   Visibility: 10mi
Dew Point:   Wind: 8mph
Humidity: 39%   Direction: 170°S
Pressure: 30.1"   Gusts: NA
Location:  41.26°N, 95.94°W
Report Text: KOMA 211752Z 17007KT 10SM CLR 20/06 A3010 RMK AO2 SLP191 T02000056 10206 20039 58013
Loading
Personal Weather Stations






























Interactive Weather Map New forecast layout! Learn more

10-Day Weather Forecast

Advertisements
Track Severe Weather on mobile